createdAt,value
2019-02-19T00:00:22.487Z,13.97
2019-02-19T00:02:51.474Z,15.60
2019-02-19T00:05:20.434Z,13.00
2019-02-19T00:07:49.440Z,12.83
2019-02-19T00:10:18.403Z,14.13
2019-02-19T00:12:47.387Z,15.23
2019-02-19T00:15:16.362Z,12.73
2019-02-19T00:17:45.346Z,12.67
2019-02-19T00:20:14.382Z,13.40
2019-02-19T00:22:43.363Z,12.47
2019-02-19T00:25:12.393Z,12.50
2019-02-19T00:27:41.556Z,11.67
2019-02-19T00:30:10.657Z,12.07
2019-02-19T00:32:39.623Z,11.53
2019-02-19T00:35:08.665Z,11.30
2019-02-19T00:37:37.723Z,14.80
2019-02-19T00:40:07.430Z,12.70
2019-02-19T00:42:36.470Z,14.00
2019-02-19T00:45:06.382Z,12.57
2019-02-19T00:47:35.358Z,12.97
2019-02-19T00:50:05.866Z,11.77
2019-02-19T00:52:34.834Z,15.47
2019-02-19T00:55:04.634Z,11.67
2019-02-19T00:57:33.623Z,10.20
2019-02-19T01:00:02.578Z,10.30
2019-02-19T01:02:31.570Z,11.53
2019-02-19T01:05:00.696Z,11.23
2019-02-19T01:07:29.747Z,11.87
2019-02-19T01:09:58.707Z,10.13
2019-02-19T01:12:27.689Z,11.13
2019-02-19T01:14:56.998Z,12.97
2019-02-19T01:17:26.002Z,10.60
2019-02-19T01:19:54.954Z,12.03
2019-02-19T01:22:23.944Z,13.57
2019-02-19T01:24:53.162Z,10.97
2019-02-19T01:27:22.156Z,11.40
2019-02-19T01:29:51.119Z,10.00
2019-02-19T01:32:20.094Z,9.77
2019-02-19T01:34:49.154Z,12.20
2019-02-19T01:37:18.221Z,12.73
2019-02-19T01:39:47.889Z,11.90
2019-02-19T01:42:16.858Z,10.60
2019-02-19T01:44:45.830Z,11.40
2019-02-19T01:47:14.861Z,10.90
2019-02-19T01:49:43.835Z,10.30
2019-02-19T01:52:12.791Z,10.80
2019-02-19T01:54:41.762Z,9.77
2019-02-19T01:57:10.714Z,13.03
2019-02-19T01:59:39.706Z,12.77
2019-02-19T02:02:08.653Z,11.67
2019-02-19T02:04:37.634Z,9.77
2019-02-19T02:07:06.608Z,11.90
2019-02-19T02:09:35.584Z,9.50
2019-02-19T02:12:04.544Z,9.83
2019-02-19T02:14:33.530Z,11.53
2019-02-19T02:17:02.494Z,13.63
2019-02-19T02:19:31.466Z,12.40
2019-02-19T02:22:00.421Z,12.10
2019-02-19T02:24:30.389Z,9.00
2019-02-19T02:26:59.381Z,14.33
2019-02-19T02:29:28.342Z,9.33
2019-02-19T02:31:57.303Z,10.93
2019-02-19T02:34:26.367Z,10.97
2019-02-19T02:36:55.327Z,8.43
2019-02-19T02:39:24.300Z,10.60
2019-02-19T02:41:53.263Z,10.07
2019-02-19T02:44:22.242Z,8.97
2019-02-19T02:46:51.202Z,10.53
2019-02-19T02:49:20.176Z,9.40
2019-02-19T02:51:49.240Z,9.90
2019-02-19T02:54:18.201Z,9.57
2019-02-19T02:56:47.242Z,8.13
2019-02-19T02:59:16.210Z,8.90
2019-02-19T03:01:45.167Z,8.23
2019-02-19T03:04:14.332Z,9.70
2019-02-19T03:06:56.939Z,9.80
2019-02-19T03:09:25.994Z,9.00
2019-02-19T03:11:55.002Z,9.20
2019-02-19T03:14:23.988Z,9.60
2019-02-19T03:16:52.937Z,8.90
2019-02-19T03:19:21.906Z,9.53
2019-02-19T03:21:50.863Z,9.60
2019-02-19T03:24:19.871Z,8.13
2019-02-19T03:26:48.842Z,8.37
2019-02-19T03:29:17.818Z,9.23
2019-02-19T03:31:46.788Z,8.27
2019-02-19T03:34:15.743Z,8.50
2019-02-19T03:36:44.698Z,7.43
2019-02-19T03:39:13.665Z,10.10
2019-02-19T03:41:42.624Z,10.40
2019-02-19T03:44:11.594Z,8.57
2019-02-19T03:46:40.571Z,8.60
2019-02-19T03:49:09.683Z,10.17
2019-02-19T03:51:38.716Z,8.27
2019-02-19T03:54:07.824Z,10.63
2019-02-19T03:56:36.919Z,12.20
2019-02-19T03:59:05.905Z,10.27
2019-02-19T04:01:35.028Z,10.70
2019-02-19T04:04:03.998Z,10.23
2019-02-19T04:06:32.968Z,10.93
2019-02-19T04:09:01.937Z,10.63
2019-02-19T04:11:30.899Z,10.67
2019-02-19T04:13:59.918Z,12.60
2019-02-19T04:16:28.875Z,9.10
2019-02-19T04:18:57.850Z,9.77
2019-02-19T04:21:26.849Z,11.43
2019-02-19T04:23:55.838Z,11.60
2019-02-19T04:26:24.798Z,12.13
2019-02-19T04:28:53.777Z,9.60
2019-02-19T04:31:22.821Z,10.97
2019-02-19T04:33:51.774Z,12.80
2019-02-19T04:36:20.750Z,11.53
2019-02-19T04:38:49.727Z,9.97
2019-02-19T04:41:18.764Z,13.10
2019-02-19T04:43:47.735Z,10.40
2019-02-19T04:46:16.779Z,12.50
2019-02-19T04:48:45.745Z,10.53
2019-02-19T04:51:14.729Z,12.13
2019-02-19T04:53:43.684Z,9.33
2019-02-19T04:56:12.658Z,10.23
2019-02-19T04:58:41.638Z,13.73
2019-02-19T05:01:10.598Z,9.90
2019-02-19T05:03:39.569Z,9.70
2019-02-19T05:06:08.542Z,9.00
2019-02-19T05:08:37.565Z,11.63
2019-02-19T05:11:06.809Z,10.87
2019-02-19T05:13:35.810Z,12.00
2019-02-19T05:16:04.769Z,10.43
2019-02-19T05:18:33.805Z,12.47
2019-02-19T05:21:02.773Z,9.80
2019-02-19T05:23:31.733Z,10.87
2019-02-19T05:26:00.705Z,9.97
2019-02-19T05:28:29.670Z,10.03
2019-02-19T05:30:58.645Z,12.63
2019-02-19T05:33:27.600Z,9.67
2019-02-19T05:35:56.640Z,9.27
2019-02-19T05:38:25.764Z,8.83
2019-02-19T05:40:54.906Z,10.93
2019-02-19T05:43:23.872Z,13.23
2019-02-19T05:45:52.835Z,9.83
2019-02-19T05:48:21.873Z,9.33
2019-02-19T05:50:50.943Z,11.40
2019-02-19T05:53:19.891Z,8.10
2019-02-19T05:55:48.949Z,11.80
2019-02-19T05:58:17.930Z,9.63
2019-02-19T06:00:47.019Z,9.83
2019-02-19T06:03:15.998Z,9.97
2019-02-19T06:05:44.962Z,11.57
2019-02-19T06:08:13.938Z,11.33
2019-02-19T06:10:44.171Z,12.07
2019-02-19T06:13:13.721Z,9.63
2019-02-19T06:15:42.893Z,11.73
2019-02-19T06:18:12.125Z,11.23
2019-02-19T06:20:41.106Z,10.70
2019-02-19T06:23:10.058Z,10.97
2019-02-19T06:25:39.039Z,13.17
2019-02-19T06:28:08.003Z,13.57
2019-02-19T06:30:37.006Z,9.90
2019-02-19T06:33:05.966Z,11.63
2019-02-19T06:35:34.944Z,12.43
2019-02-19T06:38:03.940Z,11.73
2019-02-19T06:40:32.899Z,11.83
2019-02-19T06:43:01.858Z,11.10
2019-02-19T06:45:30.833Z,12.03
2019-02-19T06:47:59.793Z,11.70
2019-02-19T06:50:28.881Z,12.43
2019-02-19T06:52:57.851Z,10.07
2019-02-19T06:55:26.846Z,11.23
2019-02-19T06:57:56.808Z,11.60
2019-02-19T07:00:25.766Z,9.97
2019-02-19T07:03:05.091Z,12.40
2019-02-19T07:05:34.138Z,10.00
2019-02-19T07:08:03.148Z,15.53
2019-02-19T07:10:32.126Z,14.37
2019-02-19T07:13:01.162Z,12.63
2019-02-19T07:15:30.134Z,12.07
2019-02-19T07:17:59.120Z,13.70
2019-02-19T07:20:28.081Z,10.97
2019-02-19T07:22:57.078Z,10.47
2019-02-19T07:25:26.030Z,11.70
2019-02-19T07:27:55.036Z,12.03
2019-02-19T07:30:23.993Z,12.90
2019-02-19T07:32:52.975Z,9.97
2019-02-19T07:35:21.944Z,11.40
2019-02-19T07:37:50.934Z,11.83
2019-02-19T07:40:20.029Z,10.67
2019-02-19T07:42:48.993Z,11.90
2019-02-19T07:45:17.998Z,10.43
2019-02-19T07:47:46.938Z,10.33
2019-02-19T07:50:16.009Z,11.30
2019-02-19T07:52:44.995Z,11.00
2019-02-19T07:55:14.090Z,10.63
2019-02-19T07:57:43.068Z,12.67
2019-02-19T08:00:13.280Z,15.07
2019-02-19T08:02:42.414Z,15.83
2019-02-19T08:05:11.477Z,13.80
2019-02-19T08:07:40.458Z,17.03
2019-02-19T08:10:11.435Z,16.40
2019-02-19T08:12:40.415Z,14.23
2019-02-19T08:15:11.112Z,12.67
2019-02-19T08:17:40.258Z,13.70
2019-02-19T08:20:15.759Z,12.27
2019-02-19T08:22:40.713Z,12.83
2019-02-19T08:25:09.835Z,12.90
2019-02-19T08:27:38.855Z,16.67
2019-02-19T08:30:11.085Z,15.90
2019-02-19T08:32:40.436Z,13.47
2019-02-19T08:35:09.405Z,11.23
2019-02-19T08:37:38.380Z,12.70
2019-02-19T08:40:09.483Z,13.00
2019-02-19T08:42:38.462Z,16.57
2019-02-19T08:45:09.473Z,15.07
2019-02-19T08:47:42.612Z,13.70
2019-02-19T08:50:09.194Z,12.80
2019-02-19T08:52:38.184Z,18.90
2019-02-19T08:55:07.690Z,15.97
2019-02-19T08:57:36.682Z,17.17
2019-02-19T09:00:08.772Z,13.40
2019-02-19T09:02:37.839Z,11.77
2019-02-19T09:05:07.798Z,13.10
2019-02-19T09:07:36.790Z,12.43
2019-02-19T09:10:08.867Z,13.23
2019-02-19T09:12:37.868Z,16.23
2019-02-19T09:15:11.934Z,16.50
2019-02-19T09:17:41.095Z,13.37
2019-02-19T09:20:11.207Z,13.77
2019-02-19T09:22:40.169Z,14.43
2019-02-19T09:25:09.139Z,13.57
2019-02-19T09:27:38.238Z,14.23
2019-02-19T09:30:10.533Z,15.97
2019-02-19T09:32:39.503Z,12.93
2019-02-19T09:35:09.439Z,13.73
2019-02-19T09:37:38.433Z,19.27
2019-02-19T09:40:09.423Z,14.30
2019-02-19T09:42:38.489Z,13.13
2019-02-19T09:45:09.705Z,14.50
2019-02-19T09:47:38.694Z,17.00
2019-02-19T09:50:09.702Z,17.50
2019-02-19T09:52:38.682Z,16.13
2019-02-19T09:55:08.356Z,15.37
2019-02-19T09:57:37.334Z,15.57
2019-02-19T10:00:13.702Z,17.33
2019-02-19T10:02:43.956Z,16.47
2019-02-19T10:05:13.206Z,18.27
2019-02-19T10:07:42.191Z,16.07
2019-02-19T10:10:14.400Z,16.57
2019-02-19T10:12:43.496Z,15.93
2019-02-19T10:15:13.397Z,14.40
2019-02-19T10:17:42.495Z,13.63
2019-02-19T10:20:13.408Z,17.57
2019-02-19T10:22:42.217Z,16.33
2019-02-19T10:25:14.657Z,19.17
2019-02-19T10:27:43.624Z,17.67
2019-02-19T10:30:19.645Z,16.33
2019-02-19T10:32:48.694Z,14.90
2019-02-19T10:35:17.674Z,15.73
2019-02-19T10:37:46.642Z,16.60
2019-02-19T10:40:17.331Z,15.17
2019-02-19T10:42:46.448Z,17.23
2019-02-19T10:45:18.327Z,16.87
2019-02-19T10:47:47.308Z,16.17
2019-02-19T10:50:16.276Z,15.60
2019-02-19T10:52:45.784Z,18.47
2019-02-19T10:55:14.854Z,17.00
2019-02-19T10:57:43.829Z,15.90
2019-02-19T11:00:20.299Z,16.10
2019-02-19T11:02:49.272Z,14.97
2019-02-19T11:05:18.334Z,14.47
2019-02-19T11:07:47.287Z,14.97
2019-02-19T11:10:16.292Z,16.30
2019-02-19T11:12:45.272Z,15.30
2019-02-19T11:15:15.209Z,14.67
2019-02-19T11:17:44.337Z,16.00
2019-02-19T11:20:18.751Z,16.20
2019-02-19T11:22:47.782Z,15.13
2019-02-19T11:25:16.770Z,16.70
2019-02-19T11:27:45.815Z,17.93
2019-02-19T11:30:16.763Z,14.73
2019-02-19T11:32:45.754Z,16.33
2019-02-19T11:35:14.851Z,24.87
2019-02-19T11:37:43.845Z,17.43
2019-02-19T11:40:14.169Z,16.03
2019-02-19T11:42:43.244Z,17.93
2019-02-19T11:45:15.310Z,18.33
2019-02-19T11:47:44.422Z,15.83
2019-02-19T11:50:14.156Z,16.43
2019-02-19T11:52:43.126Z,13.33
2019-02-19T11:55:14.823Z,13.67
2019-02-19T11:57:43.879Z,13.53
2019-02-19T12:00:24.399Z,14.63
2019-02-19T12:02:53.370Z,14.63
2019-02-19T12:05:22.374Z,19.27
2019-02-19T12:07:51.359Z,15.13
2019-02-19T12:10:20.353Z,16.10
2019-02-19T12:12:49.323Z,13.57
2019-02-19T12:15:19.286Z,17.00
2019-02-19T12:17:48.507Z,14.00
2019-02-19T12:20:17.509Z,13.90
2019-02-19T12:22:46.568Z,12.90
2019-02-19T12:25:15.598Z,15.30
2019-02-19T12:27:44.814Z,12.97
2019-02-19T12:30:19.030Z,13.77
2019-02-19T12:32:48.056Z,13.37
2019-02-19T12:35:17.213Z,11.03
2019-02-19T12:37:46.176Z,11.50
2019-02-19T12:40:15.280Z,11.00
2019-02-19T12:42:44.293Z,10.20
2019-02-19T12:45:17.479Z,9.23
2019-02-19T12:47:46.546Z,12.53
2019-02-19T12:50:19.178Z,9.87
2019-02-19T12:52:48.316Z,8.90
2019-02-19T12:55:17.297Z,9.53
2019-02-19T12:57:46.332Z,9.57
2019-02-19T13:00:19.419Z,10.37
2019-02-19T13:02:48.385Z,8.07
2019-02-19T13:05:17.656Z,8.03
2019-02-19T13:07:47.154Z,7.90
2019-02-19T13:10:16.407Z,7.57
2019-02-19T13:12:45.428Z,5.87
2019-02-19T13:15:17.510Z,7.17
2019-02-19T13:17:46.559Z,6.10
2019-02-19T13:20:15.630Z,8.07
2019-02-19T13:22:44.703Z,5.73
2019-02-19T13:25:13.767Z,5.37
2019-02-19T13:27:42.810Z,4.33
2019-02-19T13:30:22.066Z,3.43
2019-02-19T13:32:51.450Z,3.60
2019-02-19T13:35:21.090Z,7.13
2019-02-19T13:37:50.154Z,5.43
2019-02-19T13:40:20.076Z,5.67
2019-02-19T13:42:49.179Z,4.83
2019-02-19T13:45:18.225Z,4.33
2019-02-19T13:47:47.193Z,4.27
2019-02-19T13:50:21.448Z,3.27
2019-02-19T13:52:52.064Z,4.33
2019-02-19T13:55:22.754Z,3.47
2019-02-19T13:57:51.723Z,4.97
2019-02-19T14:00:25.370Z,5.50
2019-02-19T14:02:54.425Z,4.07
2019-02-19T14:05:23.485Z,4.67
2019-02-19T14:07:52.615Z,4.67
2019-02-19T14:10:21.597Z,3.37
2019-02-19T14:12:50.601Z,5.20
2019-02-19T14:15:26.967Z,4.23
2019-02-19T14:17:56.210Z,4.03
2019-02-19T14:20:43.308Z,3.47
2019-02-19T14:23:30.447Z,4.33
2019-02-19T14:26:01.077Z,4.80
2019-02-19T14:28:48.647Z,4.27
2019-02-19T14:31:34.735Z,5.63
2019-02-19T14:34:05.354Z,6.80
2019-02-19T14:36:47.969Z,3.53
2019-02-19T14:39:24.649Z,3.40
2019-02-19T14:41:55.333Z,3.00
2019-02-19T14:44:28.664Z,3.63
2019-02-19T14:47:01.984Z,3.30
2019-02-19T14:49:37.472Z,4.20
2019-02-19T14:52:07.994Z,3.80
2019-02-19T14:54:38.659Z,4.90
2019-02-19T14:57:09.271Z,2.47
2019-02-19T14:59:40.011Z,4.40
2019-02-19T15:02:10.606Z,3.23
2019-02-19T15:04:46.712Z,3.40
2019-02-19T15:07:20.027Z,3.23
2019-02-19T15:09:50.763Z,5.33
2019-02-19T15:12:21.348Z,3.83
2019-02-19T15:14:54.641Z,5.93
2019-02-19T15:17:31.257Z,4.10
2019-02-19T15:20:01.859Z,5.47
2019-02-19T15:22:41.545Z,2.70
2019-02-19T15:25:12.237Z,3.10
2019-02-19T15:27:59.078Z,6.03
2019-02-19T15:30:32.227Z,5.17
2019-02-19T15:33:08.619Z,4.73
2019-02-19T15:35:39.238Z,4.13
2019-02-19T15:38:26.087Z,4.80
2019-02-19T15:40:56.690Z,4.27
2019-02-19T15:43:33.138Z,5.60
2019-02-19T15:46:12.370Z,3.93
2019-02-19T15:48:45.744Z,6.73
2019-02-19T15:51:28.779Z,4.17
2019-02-19T15:53:59.419Z,4.63
2019-02-19T15:56:32.786Z,6.87
2019-02-19T15:59:20.030Z,6.63
2019-02-19T16:01:53.086Z,4.17
2019-02-19T16:04:23.702Z,4.77
2019-02-19T16:06:54.370Z,4.03
2019-02-19T16:09:40.043Z,4.00
2019-02-19T16:12:10.663Z,3.70
2019-02-19T16:14:57.236Z,6.07
2019-02-19T16:17:30.649Z,4.93
2019-02-19T16:20:10.281Z,6.37
2019-02-19T16:22:41.009Z,3.87
2019-02-19T16:25:20.499Z,4.10
2019-02-19T16:28:01.362Z,3.47
2019-02-19T16:30:31.987Z,3.00
2019-02-19T16:33:05.313Z,4.07
2019-02-19T16:35:36.031Z,4.03
2019-02-19T16:38:22.826Z,4.70
2019-02-19T16:40:53.551Z,4.03
2019-02-19T16:43:40.574Z,5.80
2019-02-19T16:46:17.015Z,5.37
2019-02-19T16:48:47.699Z,5.10
2019-02-19T16:51:18.397Z,4.13
2019-02-19T16:54:01.009Z,6.47
2019-02-19T16:56:40.436Z,4.20
2019-02-19T16:59:21.489Z,6.63
2019-02-19T17:02:08.536Z,6.43
2019-02-19T17:04:47.892Z,4.70
2019-02-19T17:07:34.818Z,5.00
2019-02-19T17:10:06.489Z,3.87
2019-02-19T17:12:53.649Z,4.90
2019-02-19T17:15:40.507Z,7.87
2019-02-19T17:18:11.207Z,5.53
2019-02-19T17:20:41.845Z,6.90
2019-02-19T17:23:27.804Z,6.60
2019-02-19T17:25:58.418Z,6.83
2019-02-19T17:28:31.629Z,5.97
2019-02-19T17:31:11.235Z,7.67
2019-02-19T17:33:41.869Z,10.33
2019-02-19T17:36:15.219Z,6.30
2019-02-19T17:38:48.812Z,6.83
2019-02-19T17:41:28.194Z,5.57
2019-02-19T17:44:01.560Z,6.20
2019-02-19T17:46:48.262Z,5.37
2019-02-19T17:49:37.328Z,5.97
2019-02-19T17:52:07.930Z,10.90
2019-02-19T17:54:54.840Z,9.97
2019-02-19T17:57:31.529Z,13.10
2019-02-19T18:00:02.162Z,7.73
2019-02-19T18:02:38.725Z,15.63
2019-02-19T18:05:25.493Z,7.10
2019-02-19T18:07:58.627Z,7.83
2019-02-19T18:10:29.247Z,6.90
2019-02-19T18:13:14.979Z,6.60
2019-02-19T18:16:00.563Z,7.50
2019-02-19T18:18:49.472Z,5.90
2019-02-19T18:21:18.855Z,6.67
2019-02-19T18:23:47.912Z,6.03
2019-02-19T18:26:17.003Z,13.60
2019-02-19T18:28:46.019Z,4.97
2019-02-19T18:31:15.005Z,5.67
2019-02-19T18:33:43.994Z,6.53
2019-02-19T18:36:13.702Z,5.87
2019-02-19T18:38:42.863Z,7.47
2019-02-19T18:41:12.079Z,10.43
2019-02-19T18:43:41.094Z,5.47
2019-02-19T18:46:10.067Z,7.33
2019-02-19T18:48:39.129Z,5.97
2019-02-19T18:51:08.206Z,6.37
2019-02-19T18:53:37.188Z,4.40
2019-02-19T18:56:06.166Z,9.20
2019-02-19T18:58:35.227Z,4.83
2019-02-19T19:01:04.255Z,9.23
2019-02-19T19:03:33.307Z,8.73
2019-02-19T19:06:02.354Z,7.33
2019-02-19T19:08:31.403Z,6.40
2019-02-19T19:11:00.384Z,5.50
2019-02-19T19:13:29.518Z,4.97
2019-02-19T19:15:58.577Z,5.63
2019-02-19T19:18:27.551Z,5.83
2019-02-19T19:20:56.547Z,5.27
2019-02-19T19:23:25.535Z,7.07
2019-02-19T19:25:54.519Z,6.30
2019-02-19T19:28:23.548Z,5.20
2019-02-19T19:30:52.543Z,4.83
2019-02-19T19:33:21.533Z,7.53
2019-02-19T19:35:50.720Z,6.27
2019-02-19T19:38:19.827Z,6.90
2019-02-19T19:40:48.885Z,5.60
2019-02-19T19:43:17.939Z,4.73
2019-02-19T19:45:46.915Z,10.47
2019-02-19T19:48:15.929Z,6.60
2019-02-19T19:50:45.019Z,7.13
2019-02-19T19:53:14.204Z,7.87
2019-02-19T19:55:43.202Z,6.33
2019-02-19T19:58:12.248Z,7.80
2019-02-19T20:00:41.287Z,7.07
2019-02-19T20:03:10.374Z,6.37
2019-02-19T20:05:39.340Z,6.83
2019-02-19T20:08:08.426Z,8.90
2019-02-19T20:10:37.434Z,6.30
2019-02-19T20:13:06.387Z,7.57
2019-02-19T20:15:35.451Z,8.27
2019-02-19T20:18:04.608Z,7.63
2019-02-19T20:20:33.600Z,7.73
2019-02-19T20:23:02.721Z,8.60
2019-02-19T20:25:31.727Z,7.00
2019-02-19T20:28:00.803Z,8.33
2019-02-19T20:30:29.798Z,6.97
2019-02-19T20:32:58.911Z,7.87
2019-02-19T20:35:27.987Z,6.93
2019-02-19T20:37:57.057Z,9.83
2019-02-19T20:40:26.140Z,8.93
2019-02-19T20:42:55.306Z,6.80
2019-02-19T20:45:24.375Z,8.40
2019-02-19T20:47:53.356Z,6.73
2019-02-19T20:50:22.372Z,6.90
2019-02-19T20:52:51.334Z,6.07
2019-02-19T20:55:20.322Z,6.40
2019-02-19T20:57:49.324Z,5.43
2019-02-19T21:00:18.546Z,7.07
2019-02-19T21:02:47.582Z,6.80
2019-02-19T21:05:16.749Z,6.70
2019-02-19T21:07:45.813Z,5.50
2019-02-19T21:10:17.070Z,6.43
2019-02-19T21:12:46.061Z,8.00
2019-02-19T21:15:15.250Z,5.80
2019-02-19T21:17:44.227Z,6.57
2019-02-19T21:20:15.106Z,7.73
2019-02-19T21:22:44.079Z,6.43
2019-02-19T21:25:13.126Z,6.77
2019-02-19T21:27:42.109Z,10.00
2019-02-19T21:30:13.394Z,6.73
2019-02-19T21:32:42.369Z,8.60
2019-02-19T21:35:11.416Z,10.80
2019-02-19T21:37:40.413Z,9.90
2019-02-19T21:40:13.850Z,9.90
2019-02-19T21:42:42.860Z,10.73
2019-02-19T21:45:13.479Z,9.07
2019-02-19T21:47:42.561Z,9.57
2019-02-19T21:50:15.859Z,10.13
2019-02-19T21:52:45.194Z,7.23
2019-02-19T21:55:14.410Z,10.13
2019-02-19T21:57:43.453Z,11.13
2019-02-19T22:00:15.788Z,7.93
2019-02-19T22:02:44.852Z,8.93
2019-02-19T22:05:14.027Z,10.83
2019-02-19T22:07:43.167Z,10.53
2019-02-19T22:10:13.758Z,12.70
2019-02-19T22:12:42.815Z,14.63
2019-02-19T22:15:15.643Z,10.73
2019-02-19T22:17:44.642Z,10.07
2019-02-19T22:20:36.195Z,12.60
2019-02-19T22:23:05.698Z,12.07
2019-02-19T22:25:34.666Z,10.07
2019-02-19T22:28:03.814Z,8.77
2019-02-19T22:30:32.770Z,7.97
2019-02-19T22:33:01.852Z,9.57
2019-02-19T22:35:30.821Z,10.53
2019-02-19T22:37:59.869Z,11.50
2019-02-19T22:40:28.921Z,9.73
2019-02-19T22:42:57.967Z,14.33
2019-02-19T22:45:26.998Z,14.07
2019-02-19T22:47:55.986Z,10.10
2019-02-19T22:50:24.955Z,10.53
2019-02-19T22:52:54.019Z,8.70
2019-02-19T22:55:33.095Z,9.37
2019-02-19T22:58:02.160Z,9.27
2019-02-19T23:00:47.805Z,9.63
2019-02-19T23:03:18.446Z,8.50
2019-02-19T23:05:47.473Z,7.43
2019-02-19T23:08:16.459Z,8.30
2019-02-19T23:10:45.430Z,8.47
2019-02-19T23:13:15.200Z,6.40
2019-02-19T23:15:44.699Z,7.63
2019-02-19T23:18:13.699Z,8.27
2019-02-19T23:20:42.663Z,7.80
2019-02-19T23:23:11.625Z,10.20
2019-02-19T23:25:40.598Z,8.67
2019-02-19T23:28:09.559Z,9.07
2019-02-19T23:30:57.897Z,8.57
2019-02-19T23:33:26.872Z,10.67
2019-02-19T23:36:15.691Z,9.30
2019-02-19T23:38:44.667Z,10.70
2019-02-19T23:41:13.641Z,13.70
2019-02-19T23:43:42.627Z,9.57
2019-02-19T23:46:11.666Z,9.20
2019-02-19T23:48:40.695Z,9.97
2019-02-19T23:51:09.663Z,9.77
2019-02-19T23:53:38.638Z,9.67
2019-02-19T23:56:07.606Z,9.27
2019-02-19T23:58:36.576Z,7.13
